Time;durP1;ratioP1;P1;durP2;ratioP2;P2;SDS_P1;SDS_P2;PMS_P1;PMS_P2;Temp;Humidity;BMP_temperature;BMP_pressure;BME280_temperature;BME280_humidity;BME280_pressure;Samples;Min_cycle;Max_cycle;Signal;HPM_P1;HPM_P2
2021/07/14 00:01:18;;;;;;;8.93;6.50;;;22.10;99.90;;;;;;5126827;27;20174;-53
2021/07/14 00:03:44;;;;;;;12.20;5.83;;;22.10;99.90;;;;;;5130372;27;20626;-53
2021/07/14 00:06:10;;;;;;;13.50;6.80;;;22.10;99.90;;;;;;5130844;27;20180;-56
2021/07/14 00:08:36;;;;;;;9.23;5.97;;;22.10;99.90;;;;;;5132753;27;20507;-53
2021/07/14 00:11:01;;;;;;;14.20;7.17;;;22.00;99.90;;;;;;5131192;27;20232;-53
2021/07/14 00:13:34;;;;;;;8.10;6.20;;;22.00;99.90;;;;;;5130031;27;20212;-54
2021/07/14 00:24:12;;;;;;;12.33;6.77;;;22.00;99.90;;;;;;5128094;27;21003;-54
2021/07/14 00:26:38;;;;;;;10.87;6.17;;;22.10;99.90;;;;;;5127844;27;20544;-55
2021/07/14 00:29:05;;;;;;;13.70;6.43;;;22.10;99.90;;;;;;5110616;27;20193;-53
2021/07/14 00:31:31;;;;;;;9.83;6.37;;;22.00;99.90;;;;;;5130333;27;20189;-54
2021/07/14 00:33:56;;;;;;;15.07;6.53;;;22.00;99.90;;;;;;5129743;27;20557;-53
2021/07/14 00:36:22;;;;;;;13.03;6.27;;;21.90;99.90;;;;;;5126483;27;20478;-54
2021/07/14 00:38:47;;;;;;;9.83;6.17;;;22.00;99.90;;;;;;5126354;27;20630;-53
2021/07/14 00:41:13;;;;;;;13.97;7.17;;;21.90;99.90;;;;;;5111661;27;20527;-53
2021/07/14 00:43:38;;;;;;;12.87;6.93;;;21.90;99.90;;;;;;5128521;27;20587;-53
2021/07/14 00:46:33;;;;;;;9.53;6.43;;;22.00;99.90;;;;;;5129512;27;20238;-56
2021/07/14 00:49:01;;;;;;;11.03;6.87;;;22.00;99.90;;;;;;5108515;27;20784;-54
2021/07/14 00:51:29;;;;;;;11.90;7.97;;;21.90;99.90;;;;;;5129438;27;20466;-56
2021/07/14 00:53:55;;;;;;;13.50;6.67;;;21.80;99.90;;;;;;5129997;27;20481;-53
2021/07/14 00:56:21;;;;;;;13.40;7.47;;;21.70;99.90;;;;;;5128693;27;20439;-53
2021/07/14 00:58:46;;;;;;;10.00;6.40;;;21.80;99.90;;;;;;5128979;27;20263;-52
2021/07/14 01:01:12;;;;;;;7.73;6.47;;;21.80;99.90;;;;;;5115155;27;20425;-51
2021/07/14 01:04:01;;;;;;;11.77;6.50;;;21.80;99.90;;;;;;5131633;27;20213;-55
2021/07/14 01:06:40;;;;;;;10.10;6.60;;;21.90;99.90;;;;;;5129867;27;20185;-54
2021/07/14 01:09:09;;;;;;;8.93;6.47;;;21.90;99.90;;;;;;5128371;27;20832;-54
2021/07/14 01:11:38;;;;;;;9.30;7.00;;;22.10;99.90;;;;;;5134509;27;20430;-55
2021/07/14 01:14:23;;;;;;;9.83;6.03;;;22.20;99.90;;;;;;5132625;27;20446;-53
2021/07/14 01:17:05;;;;;;;7.60;6.27;;;22.20;99.90;;;;;;5139732;27;20936;-53
2021/07/14 01:20:09;;;;;;;8.10;6.00;;;22.30;99.90;;;;;;5127588;27;20480;-54
2021/07/14 01:23:05;;;;;;;10.53;6.87;;;22.30;99.90;;;;;;5132615;27;20935;-53
2021/07/14 01:25:53;;;;;;;8.93;6.00;;;22.30;99.90;;;;;;5131959;27;20970;-55
2021/07/14 01:28:25;;;;;;;10.03;6.57;;;22.40;99.90;;;;;;5132560;27;20499;-53
2021/07/14 01:30:52;;;;;;;12.10;5.80;;;22.40;99.90;;;;;;5132222;27;20509;-54
2021/07/14 01:33:30;;;;;;;9.90;6.30;;;22.40;99.90;;;;;;5125998;27;20457;-54
2021/07/14 01:35:58;;;;;;;10.30;5.70;;;22.40;99.90;;;;;;5131020;27;20535;-55
2021/07/14 01:38:26;;;;;;;9.47;6.10;;;22.40;99.90;;;;;;5132779;27;20955;-56
2021/07/14 01:40:58;;;;;;;8.27;5.73;;;22.40;99.90;;;;;;5133384;27;20446;-54
2021/07/14 01:43:25;;;;;;;11.20;6.20;;;22.40;99.90;;;;;;5131752;27;20454;-53
2021/07/14 01:45:54;;;;;;;10.93;6.63;;;22.40;99.90;;;;;;5133399;27;20442;-54
2021/07/14 01:48:20;;;;;;;12.97;6.87;;;22.30;99.90;;;;;;5131273;27;20434;-54
2021/07/14 01:50:49;;;;;;;8.10;5.93;;;22.30;99.90;;;;;;5129815;27;20829;-53
2021/07/14 01:53:16;;;;;;;11.07;6.67;;;22.30;99.90;;;;;;5133864;27;20453;-55
2021/07/14 01:55:43;;;;;;;10.30;7.03;;;22.30;99.90;;;;;;5132137;27;20457;-54
2021/07/14 01:58:10;;;;;;;9.60;6.20;;;22.40;99.90;;;;;;5132572;27;20450;-53
2021/07/14 02:00:37;;;;;;;14.67;6.47;;;22.40;99.90;;;;;;5115073;27;20478;-53
2021/07/14 02:05:48;;;;;;;8.60;6.37;;;22.40;99.90;;;;;;5116512;27;20437;-54
2021/07/14 02:08:14;;;;;;;11.53;6.90;;;22.50;99.90;;;;;;5132982;27;20529;-53
2021/07/14 02:10:41;;;;;;;7.33;6.03;;;22.40;99.90;;;;;;5133515;27;20243;-53
2021/07/14 02:13:07;;;;;;;10.20;6.47;;;22.40;99.90;;;;;;5128248;27;20189;-55
2021/07/14 02:15:35;;;;;;;9.53;7.10;;;22.50;99.90;;;;;;5132863;27;20443;-55
2021/07/14 02:18:10;;;;;;;11.13;6.43;;;22.50;99.90;;;;;;5129694;27;20450;-54
2021/07/14 02:20:36;;;;;;;10.13;6.00;;;22.40;99.90;;;;;;5112583;27;20443;-53
2021/07/14 02:23:06;;;;;;;9.40;7.20;;;22.30;99.90;;;;;;5130493;27;20481;-53
2021/07/14 02:25:33;;;;;;;8.30;5.63;;;22.40;99.90;;;;;;5132110;27;20442;-54
2021/07/14 02:27:58;;;;;;;7.70;6.40;;;22.40;99.90;;;;;;5130423;27;20439;-54
2021/07/14 02:30:24;;;;;;;9.17;6.97;;;22.40;99.90;;;;;;5132478;27;20462;-53
2021/07/14 02:33:12;;;;;;;5.37;4.87;;;22.50;99.90;;;;;;5133102;27;20184;-54
2021/07/14 02:35:40;;;;;;;6.00;5.20;;;22.60;99.90;;;;;;5131852;27;20174;-55
2021/07/14 02:38:23;;;;;;;7.37;4.80;;;22.60;70.20;;;;;;5132517;27;20447;-54
2021/07/14 02:41:12;;;;;;;4.83;4.43;;;22.60;54.60;;;;;;5129796;27;20485;-54
2021/07/14 02:43:40;;;;;;;5.40;4.90;;;22.60;38.60;;;;;;5133007;27;20458;-54
2021/07/14 02:46:13;;;;;;;6.77;4.80;;;22.60;28.10;;;;;;5133568;27;20783;-55
2021/07/14 02:48:40;;;;;;;4.80;4.40;;;22.60;4.30;;;;;;5132834;27;20435;-54
2021/07/14 02:51:07;;;;;;;5.10;4.60;;;22.50;2.30;;;;;;5125091;27;20488;-53
2021/07/14 02:53:39;;;;;;;6.20;4.83;;;22.50;1.00;;;;;;5132781;27;20971;-55
2021/07/14 02:56:14;;;;;;;5.20;4.70;;;22.40;2.90;;;;;;5128610;27;20773;-53
2021/07/14 02:58:44;;;;;;;4.87;4.47;;;22.40;1.00;;;;;;5128516;27;20772;-53
2021/07/14 03:01:14;;;;;;;4.93;4.53;;;22.40;1.00;;;;;;5127918;27;20501;-53
2021/07/14 03:03:40;;;;;;;7.60;3.83;;;22.30;1.00;;;;;;5124522;27;20518;-54
2021/07/14 03:06:06;;;;;;;5.63;5.10;;;22.20;1.00;;;;;;5130720;27;20442;-54
2021/07/14 03:08:32;;;;;;;6.33;4.67;;;22.30;1.00;;;;;;5129306;27;20450;-56
2021/07/14 03:10:59;;;;;;;4.80;4.40;;;22.30;1.00;;;;;;5128102;27;20209;-54
2021/07/14 03:13:28;;;;;;;4.67;4.37;;;22.00;1.00;;;;;;5131662;27;20805;-53
2021/07/14 03:15:55;;;;;;;4.90;4.40;;;22.00;1.00;;;;;;5128951;27;20484;-54
2021/07/14 03:18:24;;;;;;;4.67;4.23;;;22.10;1.00;;;;;;5132086;27;20526;-53
2021/07/14 03:20:53;;;;;;;5.23;4.53;;;22.10;1.00;;;;;;5128139;27;20499;-54
2021/07/14 03:23:20;;;;;;;7.03;5.67;;;22.00;1.00;;;;;;5128157;27;20466;-56
2021/07/14 03:25:49;;;;;;;4.93;4.43;;;22.00;1.00;;;;;;5128259;27;20422;-54
2021/07/14 03:28:15;;;;;;;4.53;4.13;;;22.00;1.00;;;;;;5136706;27;21027;-53
2021/07/14 03:30:42;;;;;;;5.40;4.57;;;22.00;1.00;;;;;;5114768;27;20963;-53
2021/07/14 03:33:07;;;;;;;6.80;4.07;;;22.00;1.00;;;;;;5136746;27;20551;-55
2021/07/14 03:35:35;;;;;;;4.87;4.30;;;21.90;1.00;;;;;;5132228;27;20974;-54
2021/07/14 03:38:03;;;;;;;5.17;4.77;;;21.80;1.00;;;;;;5113027;27;20220;-54
2021/07/14 03:40:31;;;;;;;4.80;4.40;;;21.80;1.00;;;;;;5125897;27;20434;-54
2021/07/14 03:42:57;;;;;;;4.73;4.33;;;21.80;1.00;;;;;;5131577;27;20443;-54
2021/07/14 03:45:25;;;;;;;4.97;4.47;;;21.80;1.00;;;;;;5126893;27;20529;-54
2021/07/14 03:47:52;;;;;;;5.40;4.37;;;21.70;1.00;;;;;;5128833;27;20514;-54
2021/07/14 03:50:19;;;;;;;4.30;4.00;;;21.70;1.00;;;;;;5126363;27;20496;-53
2021/07/14 03:52:46;;;;;;;5.03;4.63;;;21.60;1.00;;;;;;5128635;27;20931;-54
2021/07/14 03:55:13;;;;;;;4.33;4.03;;;21.60;1.00;;;;;;5141298;27;20476;-57
2021/07/14 03:57:39;;;;;;;4.70;4.30;;;21.60;1.00;;;;;;5131909;27;20435;-54
2021/07/14 04:00:06;;;;;;;4.90;3.80;;;21.70;1.00;;;;;;5131357;27;20833;-53
2021/07/14 04:02:33;;;;;;;5.93;4.70;;;21.70;1.00;;;;;;5130872;27;20709;-54
2021/07/14 04:04:58;;;;;;;5.03;4.50;;;21.90;1.00;;;;;;5107320;27;20438;-56
2021/07/14 04:07:29;;;;;;;4.90;4.50;;;22.00;1.00;;;;;;5112730;27;21028;-53
2021/07/14 04:09:55;;;;;;;5.40;4.53;;;22.00;1.00;;;;;;5131177;27;20200;-55
2021/07/14 04:12:20;;;;;;;5.80;5.30;;;21.60;1.00;;;;;;5131547;27;20424;-53
2021/07/14 04:14:46;;;;;;;6.77;6.03;;;21.90;1.00;;;;;;5112732;27;20212;-55
2021/07/14 04:17:12;;;;;;;9.70;6.67;;;21.90;1.00;;;;;;5128169;27;20182;-54
2021/07/14 04:19:40;;;;;;;13.13;6.83;;;21.90;1.00;;;;;;5113333;27;20245;-53
2021/07/14 04:22:08;;;;;;;6.83;6.20;;;22.00;11.40;;;;;;5130678;27;20555;-56
2021/07/14 04:24:34;;;;;;;6.37;5.67;;;22.00;9.00;;;;;;5143978;27;20491;-53
2021/07/14 04:27:00;;;;;;;9.63;6.40;;;22.00;7.50;;;;;;5131714;27;20465;-55
2021/07/14 04:29:25;;;;;;;8.90;5.63;;;22.20;11.90;;;;;;5130642;27;20519;-53
2021/07/14 04:31:51;;;;;;;10.83;7.10;;;22.30;1.00;;;;;;5131460;27;20472;-53
2021/07/14 04:34:17;;;;;;;8.23;5.63;;;22.30;1.00;;;;;;5131123;27;20185;-53
2021/07/14 04:36:43;;;;;;;6.03;5.43;;;22.30;1.00;;;;;;5127849;27;20185;-55
2021/07/14 04:39:10;;;;;;;8.43;5.93;;;22.40;1.00;;;;;;5126508;27;20734;-56
2021/07/14 04:41:37;;;;;;;6.20;5.60;;;22.50;1.00;;;;;;5111549;27;20434;-54
2021/07/14 04:44:04;;;;;;;10.60;6.57;;;22.50;1.00;;;;;;5128776;27;20938;-55
2021/07/14 04:46:30;;;;;;;7.40;6.70;;;22.50;1.00;;;;;;5121344;27;20478;-53
2021/07/14 04:48:56;;;;;;;8.90;7.70;;;22.60;1.00;;;;;;5128106;27;20427;-54
2021/07/14 04:51:23;;;;;;;14.40;8.67;;;22.60;1.00;;;;;;5124652;27;20800;-55
2021/07/14 04:53:48;;;;;;;8.73;7.83;;;22.60;1.00;;;;;;5134699;27;21014;-54
2021/07/14 04:56:16;;;;;;;10.30;7.70;;;22.50;1.00;;;;;;5152173;27;20513;-53
2021/07/14 04:58:43;;;;;;;9.20;8.27;;;22.40;1.00;;;;;;5139073;27;20169;-53
2021/07/14 05:01:08;;;;;;;12.70;9.17;;;22.50;1.00;;;;;;5146620;27;20428;-53
2021/07/14 05:03:34;;;;;;;11.20;7.50;;;22.50;1.00;;;;;;5138436;27;20439;-54
2021/07/14 05:05:59;;;;;;;10.50;9.10;;;22.60;1.00;;;;;;5133709;27;20196;-55
2021/07/14 05:08:25;;;;;;;9.73;8.83;;;22.60;1.00;;;;;;5130075;27;20268;-54
2021/07/14 05:10:50;;;;;;;9.37;8.40;;;22.80;1.00;;;;;;5134173;27;20297;-54
2021/07/14 05:13:17;;;;;;;10.50;8.50;;;22.90;1.00;;;;;;5137081;27;20538;-53
2021/07/14 05:15:44;;;;;;;10.00;6.87;;;23.00;1.00;;;;;;5127186;27;20170;-54
2021/07/14 05:18:13;;;;;;;11.23;8.30;;;22.90;1.00;;;;;;5126830;27;20449;-53
2021/07/14 05:20:40;;;;;;;10.23;7.57;;;22.80;1.00;;;;;;5130019;27;20525;-53
2021/07/14 05:23:06;;;;;;;7.57;6.60;;;22.90;1.00;;;;;;5130308;27;20847;-52
2021/07/14 05:25:32;;;;;;;8.10;6.90;;;23.00;1.00;;;;;;5130609;27;20450;-53
2021/07/14 05:27:58;;;;;;;11.23;7.30;;;23.20;1.00;;;;;;5127812;27;20409;-56
2021/07/14 05:30:23;;;;;;;11.60;9.20;;;23.30;1.00;;;;;;5131614;27;20249;-56
2021/07/14 05:32:49;;;;;;;12.50;9.00;;;23.30;1.00;;;;;;5129231;27;20215;-52
2021/07/14 05:35:14;;;;;;;16.97;10.10;;;23.30;1.00;;;;;;5127155;27;20230;-52
2021/07/14 05:37:40;;;;;;;12.10;10.20;;;23.40;1.00;;;;;;5123176;27;20182;-55
2021/07/14 05:40:07;;;;;;;11.27;10.07;;;23.70;1.00;;;;;;5124375;27;20188;-56
2021/07/14 05:42:32;;;;;;;13.53;12.10;;;23.90;1.00;;;;;;5127753;27;20181;-53
2021/07/14 05:44:58;;;;;;;12.97;11.60;;;23.90;1.00;;;;;;5132497;27;20932;-54
2021/07/14 05:47:24;;;;;;;15.63;11.37;;;24.10;1.00;;;;;;5129005;27;20177;-52
2021/07/14 05:49:49;;;;;;;14.70;11.33;;;24.00;1.00;;;;;;5126413;27;20376;-52
2021/07/14 05:52:15;;;;;;;13.30;11.90;;;23.80;1.00;;;;;;5143805;27;20445;-53
2021/07/14 05:54:42;;;;;;;18.70;12.97;;;23.60;1.00;;;;;;5139911;27;20212;-53
2021/07/14 05:57:07;;;;;;;14.13;12.73;;;23.50;1.00;;;;;;5134406;27;20184;-54
2021/07/14 05:59:33;;;;;;;14.73;13.03;;;23.40;1.00;;;;;;5132376;27;20882;-54
2021/07/14 06:01:58;;;;;;;16.40;12.50;;;23.40;1.00;;;;;;5146014;27;20173;-53
2021/07/14 06:04:24;;;;;;;15.47;11.43;;;23.40;1.00;;;;;;5132633;27;20182;-55
2021/07/14 06:06:50;;;;;;;12.73;11.43;;;23.60;1.00;;;;;;5133018;27;20234;-55
2021/07/14 06:09:15;;;;;;;11.57;10.33;;;23.80;1.00;;;;;;5133305;27;20221;-53
2021/07/14 06:11:41;;;;;;;14.27;10.63;;;23.90;1.00;;;;;;5133782;27;20630;-54
2021/07/14 06:14:07;;;;;;;11.93;10.93;;;23.90;1.00;;;;;;5134067;27;20233;-54
2021/07/14 06:16:33;;;;;;;10.40;9.40;;;23.90;1.00;;;;;;5108927;27;20187;-53
2021/07/14 06:18:58;;;;;;;15.97;11.30;;;23.80;1.00;;;;;;5127657;27;20887;-53
2021/07/14 06:21:25;;;;;;;13.13;11.80;;;23.60;1.00;;;;;;5132836;27;20242;-54
2021/07/14 06:23:50;;;;;;;11.83;10.73;;;23.50;1.00;;;;;;5133294;27;20166;-54
2021/07/14 06:26:16;;;;;;;11.60;10.50;;;23.50;1.00;;;;;;5133245;27;20493;-55
2021/07/14 06:28:42;;;;;;;11.93;10.83;;;23.50;1.00;;;;;;5131257;27;20203;-54
2021/07/14 06:31:07;;;;;;;12.30;11.00;;;23.50;1.00;;;;;;5131410;27;20674;-53
2021/07/14 06:33:36;;;;;;;11.40;10.30;;;23.50;1.00;;;;;;5114068;27;20269;-53
2021/07/14 06:36:03;;;;;;;11.47;10.43;;;23.50;1.00;;;;;;5128370;27;20185;-56
2021/07/14 06:38:29;;;;;;;12.77;11.40;;;23.40;1.00;;;;;;5128924;27;20921;-53
2021/07/14 06:40:55;;;;;;;13.40;12.10;;;23.50;1.00;;;;;;5128894;27;20438;-57
2021/07/14 06:43:21;;;;;;;13.50;12.20;;;23.70;1.00;;;;;;5133246;27;20413;-59
2021/07/14 06:45:47;;;;;;;12.40;11.20;;;23.80;1.00;;;;;;5132489;27;20439;-54
2021/07/14 06:48:16;;;;;;;14.40;13.13;;;23.90;1.00;;;;;;5132562;27;20178;-55
2021/07/14 06:50:42;;;;;;;13.17;11.97;;;23.80;1.00;;;;;;5112517;27;20438;-53
2021/07/14 06:53:07;;;;;;;13.30;11.90;;;23.80;1.00;;;;;;5132806;27;20409;-55
2021/07/14 06:55:33;;;;;;;13.63;12.43;;;23.90;1.00;;;;;;5132533;27;20262;-54
2021/07/14 06:58:00;;;;;;;13.23;11.90;;;24.00;1.00;;;;;;5152213;27;20200;-53
2021/07/14 07:00:26;;;;;;;14.23;12.80;;;24.20;1.00;;;;;;5148053;27;20430;-52
2021/07/14 07:02:52;;;;;;;14.23;12.73;;;24.50;1.00;;;;;;5132273;27;20409;-54
2021/07/14 07:05:17;;;;;;;14.27;12.87;;;24.60;1.00;;;;;;5132889;27;20422;-55
2021/07/14 07:07:43;;;;;;;13.10;12.00;;;;;;;;;;5128390;27;20197;-53
2021/07/14 07:10:10;;;;;;;13.30;11.90;;;24.80;1.00;;;;;;5129477;27;20197;-53
2021/07/14 07:12:35;;;;;;;12.67;11.57;;;24.80;1.00;;;;;;5131496;27;20406;-53
2021/07/14 07:15:02;;;;;;;12.97;11.77;;;24.80;1.00;;;;;;5131619;27;20438;-54
2021/07/14 07:17:27;;;;;;;11.67;10.57;;;24.70;1.00;;;;;;5132237;27;20504;-54
2021/07/14 07:19:53;;;;;;;13.00;10.20;;;24.60;1.00;;;;;;5130534;27;20482;-55
2021/07/14 07:22:19;;;;;;;13.60;10.40;;;24.60;1.00;;;;;;5130429;27;20181;-54
2021/07/14 07:24:44;;;;;;;10.77;9.97;;;24.50;1.00;;;;;;5149358;27;20176;-61
2021/07/14 07:27:10;;;;;;;11.40;10.30;;;24.60;1.00;;;;;;5131168;27;20845;-54
2021/07/14 07:29:39;;;;;;;13.60;11.00;;;24.70;1.00;;;;;;5133346;27;20208;-54
2021/07/14 07:32:05;;;;;;;11.30;10.30;;;24.70;1.00;;;;;;5145895;27;20220;-54
2021/07/14 07:34:30;;;;;;;10.17;9.30;;;24.70;1.00;;;;;;5141691;27;20513;-54
2021/07/14 07:36:56;;;;;;;10.47;9.27;;;24.60;1.00;;;;;;5135958;27;20474;-55
2021/07/14 07:39:22;;;;;;;9.70;9.00;;;24.60;1.00;;;;;;5152917;27;20192;-55
2021/07/14 07:41:48;;;;;;;10.83;9.73;;;24.60;1.00;;;;;;5152877;27;20541;-56
2021/07/14 07:44:14;;;;;;;9.60;8.80;;;24.60;1.00;;;;;;5129733;27;20197;-54
2021/07/14 07:46:41;;;;;;;8.40;7.57;;;25.00;1.00;;;;;;5113610;27;20432;-54
2021/07/14 07:49:07;;;;;;;7.90;7.20;;;24.50;1.00;;;;;;5119211;27;20185;-55
2021/07/14 07:51:34;;;;;;;7.83;7.23;;;24.50;1.00;;;;;;5131825;27;20516;-55
2021/07/14 07:54:02;;;;;;;8.50;7.43;;;24.40;1.00;;;;;;5130605;27;20426;-53
2021/07/14 07:56:31;;;;;;;7.13;6.53;;;24.40;1.00;;;;;;5131580;27;20505;-55
2021/07/14 07:59:04;;;;;;;7.10;6.60;;;24.30;1.00;;;;;;5132212;27;20520;-55
2021/07/14 08:01:31;;;;;;;7.20;6.50;;;24.10;1.00;;;;;;5132001;27;20409;-55
2021/07/14 08:03:56;;;;;;;6.10;5.30;;;24.10;1.00;;;;;;5132028;27;20954;-55
2021/07/14 08:06:22;;;;;;;5.47;5.00;;;24.00;1.00;;;;;;5131609;27;20493;-55
2021/07/14 08:08:48;;;;;;;5.60;5.10;;;24.10;1.00;;;;;;5131711;27;20519;-55
2021/07/14 08:11:13;;;;;;;5.70;5.20;;;24.30;1.00;;;;;;5131649;27;20227;-55
2021/07/14 08:13:39;;;;;;;6.20;5.60;;;24.30;1.00;;;;;;5131079;27;20243;-55
2021/07/14 08:16:05;;;;;;;5.77;5.27;;;24.40;1.00;;;;;;5131780;27;20189;-54
2021/07/14 08:18:30;;;;;;;7.27;5.83;;;24.60;1.00;;;;;;5132030;27;20192;-55
2021/07/14 08:20:56;;;;;;;6.20;5.67;;;24.80;1.00;;;;;;5131733;27;20210;-54
2021/07/14 08:23:22;;;;;;;8.80;6.03;;;25.00;1.00;;;;;;5152470;27;20216;-54
2021/07/14 08:25:51;;;;;;;9.83;5.90;;;25.30;1.00;;;;;;5133350;27;20239;-53
2021/07/14 08:28:16;;;;;;;6.13;5.53;;;25.40;1.00;;;;;;5152336;27;20412;-54
2021/07/14 08:30:42;;;;;;;7.33;6.43;;;25.50;1.00;;;;;;5133255;27;20457;-54
2021/07/14 08:33:07;;;;;;;7.20;6.50;;;25.60;1.00;;;;;;5129845;27;20539;-54
2021/07/14 08:35:33;;;;;;;6.93;6.33;;;25.80;1.00;;;;;;5129688;27;20190;-53
2021/07/14 08:37:58;;;;;;;7.23;5.70;;;25.90;1.00;;;;;;5112886;27;20189;-55
2021/07/14 08:40:24;;;;;;;7.33;6.73;;;26.20;1.00;;;;;;5131314;27;20550;-54
2021/07/14 08:42:53;;;;;;;7.10;6.40;;;26.40;1.00;;;;;;5113276;27;20192;-55
2021/07/14 08:45:20;;;;;;;6.60;5.97;;;26.60;1.00;;;;;;5131351;27;20227;-54
2021/07/14 08:47:46;;;;;;;9.23;7.00;;;26.60;1.00;;;;;;5128532;27;20442;-54
2021/07/14 08:50:13;;;;;;;8.10;7.40;;;26.60;1.00;;;;;;5130828;27;20514;-55
2021/07/14 08:52:42;;;;;;;7.40;6.80;;;26.70;1.00;;;;;;5131051;27;20405;-54
2021/07/14 08:55:10;;;;;;;7.97;7.27;;;26.60;1.00;;;;;;5130960;27;20447;-55
2021/07/14 08:57:36;;;;;;;8.77;6.80;;;26.60;1.00;;;;;;5131725;27;20405;-54
2021/07/14 09:00:08;;;;;;;8.80;8.10;;;26.60;1.00;;;;;;5131048;27;20420;-55
2021/07/14 09:02:37;;;;;;;7.53;6.97;;;26.50;1.00;;;;;;5129081;27;20177;-55
2021/07/14 09:05:03;;;;;;;8.33;7.30;;;26.40;1.00;;;;;;5130962;27;20436;-54
2021/07/14 09:07:29;;;;;;;8.47;7.60;;;26.40;1.00;;;;;;5130777;27;20441;-55
2021/07/14 09:09:54;;;;;;;7.73;7.13;;;26.60;1.00;;;;;;5112291;27;20201;-56
2021/07/14 09:12:20;;;;;;;8.53;6.60;;;26.70;1.00;;;;;;5131100;27;20691;-54
2021/07/14 09:14:48;;;;;;;7.57;6.97;;;26.90;1.00;;;;;;5139537;27;20230;-55
2021/07/14 09:17:17;;;;;;;7.73;7.03;;;26.80;1.00;;;;;;5132068;27;20646;-56
2021/07/14 09:19:42;;;;;;;6.80;6.30;;;26.90;1.00;;;;;;5125393;27;20770;-54
2021/07/14 09:22:19;;;;;;;7.67;6.97;;;27.00;1.00;;;;;;5155084;27;20440;-55
2021/07/14 09:24:45;;;;;;;7.63;6.93;;;26.90;1.00;;;;;;5140444;27;20238;-54
2021/07/14 09:27:27;;;;;;;6.80;6.30;;;26.80;1.00;;;;;;5134808;27;21145;-55
2021/07/14 09:30:20;;;;;;;7.20;6.60;;;26.90;1.00;;;;;;5134397;27;20212;-54
2021/07/14 09:32:51;;;;;;;7.70;6.90;;;27.10;1.00;;;;;;5129364;27;20443;-55
2021/07/14 09:35:45;;;;;;;7.70;6.90;;;27.30;1.00;;;;;;5135659;27;20483;-55
2021/07/14 09:38:16;;;;;;;7.87;7.17;;;27.60;1.00;;;;;;5155121;27;20415;-56
2021/07/14 09:40:45;;;;;;;9.47;8.00;;;27.70;1.00;;;;;;5155130;27;20498;-54
2021/07/14 09:43:17;;;;;;;7.80;6.97;;;27.60;1.00;;;;;;5155050;27;20488;-55
2021/07/14 09:45:51;;;;;;;7.63;7.03;;;27.30;1.00;;;;;;5155453;27;20517;-53
2021/07/14 09:48:27;;;;;;;7.30;6.70;;;26.80;1.00;;;;;;5146784;27;20408;-54
2021/07/14 09:51:20;;;;;;;7.13;6.60;;;26.70;1.00;;;;;;5134198;27;20540;-55
2021/07/14 09:53:48;;;;;;;6.60;6.10;;;27.10;1.00;;;;;;5130399;27;20447;-54
2021/07/14 09:56:26;;;;;;;8.90;7.30;;;27.30;1.00;;;;;;5133927;27;20739;-55
2021/07/14 09:59:09;;;;;;;7.00;6.50;;;27.30;1.00;;;;;;5134414;27;20537;-55
2021/07/14 10:01:42;;;;;;;7.00;6.50;;;27.30;1.00;;;;;;5133683;27;20416;-56
2021/07/14 10:04:10;;;;;;;6.87;6.23;;;27.50;1.00;;;;;;5133304;27;20434;-56
2021/07/14 10:06:36;;;;;;;7.07;6.47;;;27.70;1.00;;;;;;5148363;27;20450;-54
2021/07/14 10:09:03;;;;;;;6.80;6.20;;;28.00;1.00;;;;;;5154643;27;20519;-55
2021/07/14 10:11:29;;;;;;;6.60;6.00;;;28.60;1.00;;;;;;5154591;27;20427;-54
2021/07/14 10:14:02;;;;;;;7.70;7.00;;;28.80;1.00;;;;;;5150924;27;20442;-56
2021/07/14 10:16:29;;;;;;;7.20;6.53;;;28.80;1.00;;;;;;5155012;27;20465;-56
2021/07/14 10:19:06;;;;;;;6.43;5.83;;;28.60;1.00;;;;;;5155139;27;20482;-56
2021/07/14 10:21:35;;;;;;;6.13;5.53;;;28.40;1.00;;;;;;5154644;27;20507;-56
2021/07/14 10:24:00;;;;;;;5.20;4.70;;;28.30;1.00;;;;;;5132397;27;20928;-57
2021/07/14 10:26:26;;;;;;;6.17;5.00;;;28.70;1.00;;;;;;5133022;27;20439;-57
2021/07/14 10:28:54;;;;;;;5.27;4.80;;;29.00;1.00;;;;;;5132806;27;20583;-58
2021/07/14 10:31:22;;;;;;;6.40;5.90;;;29.10;1.00;;;;;;5132431;27;20208;-57
2021/07/14 10:33:52;;;;;;;6.20;5.80;;;28.90;1.00;;;;;;5132984;27;20427;-56
2021/07/14 10:36:28;;;;;;;8.37;7.77;;;28.50;1.00;;;;;;5111114;27;20532;-55
2021/07/14 10:38:59;;;;;;;12.80;11.80;;;28.30;1.00;;;;;;5115130;27;20401;-55
2021/07/14 10:41:30;;;;;;;12.97;11.77;;;28.30;1.00;;;;;;5145377;27;20442;-55
2021/07/14 10:43:56;;;;;;;13.77;12.77;;;28.30;1.00;;;;;;5146827;27;20847;-55
2021/07/14 10:46:25;;;;;;;14.10;13.07;;;28.50;1.00;;;;;;5133751;27;20425;-56
2021/07/14 10:48:52;;;;;;;14.93;13.70;;;28.80;1.00;;;;;;5135552;27;20962;-56
2021/07/14 10:51:18;;;;;;;13.37;12.27;;;29.00;1.00;;;;;;5135348;27;20887;-57
2021/07/14 10:53:48;;;;;;;15.43;14.00;;;28.80;1.00;;;;;;5153910;27;20401;-56
2021/07/14 10:56:14;;;;;;;16.00;14.80;;;28.50;1.00;;;;;;5153750;27;20493;-56
2021/07/14 10:58:42;;;;;;;15.77;14.50;;;28.50;1.00;;;;;;5153859;27;20436;-56
2021/07/14 11:01:08;;;;;;;16.97;15.50;;;28.60;1.00;;;;;;5147915;27;20782;-57
2021/07/14 11:03:36;;;;;;;16.73;15.53;;;28.60;1.00;;;;;;5131695;27;20935;-56
2021/07/14 11:06:03;;;;;;;16.57;15.27;;;28.60;1.00;;;;;;5132447;27;20439;-56
2021/07/14 11:08:47;;;;;;;16.47;15.27;;;28.50;1.00;;;;;;5140307;27;20420;-56
2021/07/14 11:11:24;;;;;;;16.40;15.10;;;28.60;1.00;;;;;;5153919;27;20435;-57
2021/07/14 11:14:04;;;;;;;13.97;12.87;;;28.70;1.00;;;;;;5153546;27;20433;-55
2021/07/14 11:16:38;;;;;;;15.20;14.20;;;29.20;1.00;;;;;;5153739;27;20434;-56
2021/07/14 11:19:08;;;;;;;15.23;14.23;;;29.50;1.00;;;;;;5148625;27;20522;-63
2021/07/14 11:21:56;;;;;;;12.97;12.10;;;29.70;1.00;;;;;;5144015;27;20485;-63
2021/07/14 11:24:37;;;;;;;10.60;9.90;;;29.50;1.00;;;;;;5131579;27;20414;-63
2021/07/14 11:27:24;;;;;;;9.40;8.60;;;29.10;1.00;;;;;;5135800;27;20422;-63
2021/07/14 11:29:55;;;;;;;8.63;8.10;;;28.90;1.00;;;;;;5144767;27;20431;-63
2021/07/14 11:32:39;;;;;;;8.30;7.80;;;29.30;1.00;;;;;;5148527;27;20488;-63
2021/07/14 11:35:15;;;;;;;9.73;9.10;;;29.70;1.00;;;;;;5148862;27;20480;-62
2021/07/14 11:37:42;;;;;;;9.33;8.53;;;29.80;1.00;;;;;;5136498;27;20429;-62
2021/07/14 11:40:25;;;;;;;8.17;7.67;;;29.50;1.00;;;;;;5147267;27;20443;-63
2021/07/14 11:42:57;;;;;;;7.70;7.20;;;29.20;1.00;;;;;;5117087;27;20446;-64
2021/07/14 11:45:26;;;;;;;6.73;6.10;;;28.90;1.00;;;;;;5132523;27;20449;-63
2021/07/14 11:48:05;;;;;;;5.50;5.10;;;28.90;1.00;;;;;;5132324;27;20452;-63
2021/07/14 11:50:43;;;;;;;6.10;5.70;;;28.50;1.00;;;;;;5146559;27;20498;-63
2021/07/14 11:56:22;;;;;;;6.10;5.70;;;27.80;1.00;;;;;;5128911;27;20493;-63
2021/07/14 11:59:00;;;;;;;6.67;6.17;;;27.80;1.00;;;;;;5129855;27;20844;-62
2021/07/14 12:01:26;;;;;;;6.67;6.07;;;27.80;1.00;;;;;;5132450;27;20447;-64
2021/07/14 12:04:00;;;;;;;6.83;6.43;;;27.80;1.00;;;;;;5126664;27;20831;-62
2021/07/14 12:06:38;;;;;;;6.20;5.80;;;27.70;1.00;;;;;;5135205;27;20648;-62
2021/07/14 12:09:23;;;;;;;6.17;5.77;;;28.00;1.00;;;;;;5111223;27;20442;-61
2021/07/14 12:11:54;;;;;;;4.53;4.23;;;28.30;1.00;;;;;;5143413;27;20894;-60
2021/07/14 12:14:26;;;;;;;3.67;3.37;;;28.70;1.00;;;;;;5141585;27;20459;-61
2021/07/14 12:17:10;;;;;;;4.20;4.00;;;28.90;1.00;;;;;;5138466;27;20441;-62
2021/07/14 12:19:41;;;;;;;4.20;3.47;;;29.20;1.00;;;;;;5128026;27;20434;-61
2021/07/14 12:22:19;;;;;;;3.00;2.33;;;29.30;1.00;;;;;;5140326;27;20449;-62
2021/07/14 12:25:01;;;;;;;3.03;2.83;;;29.80;1.00;;;;;;5136554;27;20419;-61
2021/07/14 12:27:34;;;;;;;2.90;2.70;;;29.90;1.00;;;;;;5137507;27;20878;-61
2021/07/14 12:30:04;;;;;;;2.30;2.20;;;30.00;1.00;;;;;;5135655;27;20515;-61
2021/07/14 12:32:40;;;;;;;3.40;3.10;;;30.00;1.00;;;;;;5137478;27;20438;-61
2021/07/14 12:35:10;;;;;;;2.63;2.30;;;30.00;1.00;;;;;;5142205;27;20524;-61
2021/07/14 12:37:42;;;;;;;4.43;2.50;;;30.00;1.00;;;;;;5140344;27;21022;-62
2021/07/14 12:40:09;;;;;;;2.50;2.30;;;29.90;1.00;;;;;;5112743;27;20458;-62
2021/07/14 12:42:35;;;;;;;3.23;2.60;;;30.00;1.00;;;;;;5134757;27;20408;-63
2021/07/14 12:45:00;;;;;;;2.50;2.30;;;29.90;1.00;;;;;;5133730;27;20499;-62
2021/07/14 12:47:26;;;;;;;3.13;2.30;;;30.00;1.00;;;;;;5151991;27;20212;-62
2021/07/14 12:49:56;;;;;;;1.90;1.80;;;30.40;1.00;;;;;;5148852;27;20616;-61
2021/07/14 12:52:22;;;;;;;2.03;1.80;;;30.60;1.00;;;;;;5147896;27;20181;-62
2021/07/14 12:54:55;;;;;;;2.27;2.00;;;30.30;1.00;;;;;;5138100;27;20405;-62
2021/07/14 12:57:25;;;;;;;1.93;1.83;;;30.00;1.00;;;;;;5147274;27;20427;-61
2021/07/14 12:59:58;;;;;;;2.07;1.90;;;29.90;1.00;;;;;;5126437;27;20492;-62
2021/07/14 13:02:48;;;;;;;4.43;2.20;;;30.00;1.00;;;;;;5114404;27;20458;-62
2021/07/14 13:05:16;;;;;;;2.17;2.07;;;29.70;1.00;;;;;;5110571;27;20429;-62
2021/07/14 13:07:50;;;;;;;2.33;2.00;;;29.80;1.00;;;;;;5137869;27;20408;-63
2021/07/14 13:10:18;;;;;;;1.80;1.70;;;29.80;1.00;;;;;;5138158;27;20445;-62
2021/07/14 13:12:47;;;;;;;2.40;1.97;;;29.80;1.00;;;;;;5135935;27;20796;-63
2021/07/14 13:15:21;;;;;;;2.30;2.20;;;30.10;1.00;;;;;;5134352;27;20442;-63